createdAt,value
2019-06-07T00:01:59.313Z,11.00
2019-06-07T00:04:27.403Z,11.00
2019-06-07T00:06:55.556Z,11.10
2019-06-07T00:09:23.767Z,11.00
2019-06-07T00:11:54.239Z,11.00
2019-06-07T00:14:23.181Z,10.90
2019-06-07T00:16:51.352Z,10.90
2019-06-07T00:19:19.403Z,10.90
2019-06-07T00:24:22.931Z,10.80
2019-06-07T00:26:59.028Z,10.80
2019-06-07T00:29:29.248Z,10.80
2019-06-07T00:32:00.859Z,10.70
2019-06-07T00:34:30.436Z,10.70
2019-06-07T00:37:00.288Z,10.70
2019-06-07T00:39:28.380Z,10.70
2019-06-07T00:41:56.733Z,10.70
2019-06-07T00:44:25.517Z,10.70
2019-06-07T00:46:56.825Z,10.70
2019-06-07T00:49:40.669Z,10.80
2019-06-07T00:52:02.476Z,10.70
2019-06-07T00:54:30.816Z,10.70
2019-06-07T00:56:58.917Z,10.70
2019-06-07T00:59:29.558Z,10.70
2019-06-07T01:01:56.906Z,10.70
2019-06-07T01:04:28.941Z,10.70
2019-06-07T01:06:57.910Z,10.70
2019-06-07T01:09:38.510Z,10.60
2019-06-07T01:12:14.113Z,10.60
2019-06-07T01:14:48.085Z,10.70
2019-06-07T01:17:43.620Z,10.60
2019-06-07T01:20:06.782Z,10.60
2019-06-07T01:22:35.220Z,10.60
2019-06-07T01:25:06.867Z,10.60
2019-06-07T01:27:42.356Z,10.60
2019-06-07T01:30:22.819Z,10.60
2019-06-07T01:32:49.648Z,10.60
2019-06-07T01:35:29.565Z,10.60
2019-06-07T01:38:02.214Z,10.70
2019-06-07T01:40:35.665Z,10.70
2019-06-07T01:43:08.900Z,10.70
2019-06-07T01:45:36.219Z,10.70
2019-06-07T01:48:04.755Z,10.70
2019-06-07T01:50:37.790Z,10.70
2019-06-07T01:53:05.958Z,10.70
2019-06-07T01:55:36.098Z,10.70
2019-06-07T01:58:06.823Z,10.70
2019-06-07T02:00:36.760Z,10.70
2019-06-07T02:03:12.706Z,10.70
2019-06-07T02:05:40.853Z,10.70
2019-06-07T02:08:10.361Z,10.60
2019-06-07T02:10:38.533Z,10.70
2019-06-07T02:13:07.749Z,10.60
2019-06-07T02:15:39.899Z,10.70
2019-06-07T02:18:10.959Z,10.80
2019-06-07T02:20:41.935Z,10.90
2019-06-07T02:23:09.965Z,11.00
2019-06-07T02:25:45.884Z,11.10
2019-06-07T02:28:27.570Z,11.20
2019-06-07T02:30:47.189Z,11.20
2019-06-07T02:33:07.989Z,11.30
2019-06-07T02:35:41.409Z,11.40
2019-06-07T02:38:14.872Z,11.50
2019-06-07T02:40:42.969Z,11.50
2019-06-07T02:43:12.399Z,11.50
2019-06-07T02:45:43.447Z,11.60
2019-06-07T02:48:12.307Z,11.60
2019-06-07T02:50:40.708Z,11.60
2019-06-07T02:53:12.432Z,11.70
2019-06-07T02:56:34.229Z,11.60
2019-06-07T02:58:21.287Z,11.60
2019-06-07T03:01:08.887Z,11.70
2019-06-07T03:03:19.577Z,11.70
2019-06-07T03:05:47.800Z,11.70
2019-06-07T03:08:18.061Z,11.70
2019-06-07T03:10:47.991Z,11.60
2019-06-07T03:13:20.450Z,11.70
2019-06-07T03:15:50.484Z,11.80
2019-06-07T03:18:41.627Z,11.80
2019-06-07T03:21:12.531Z,11.80
2019-06-07T03:23:40.739Z,11.80
2019-06-07T03:26:12.362Z,11.90
2019-06-07T03:28:46.232Z,11.90
2019-06-07T03:31:18.036Z,11.90
2019-06-07T03:33:48.860Z,11.90
2019-06-07T03:36:25.754Z,11.80
2019-06-07T03:38:49.728Z,11.80
2019-06-07T03:41:18.084Z,11.80
2019-06-07T03:43:46.365Z,11.80
2019-06-07T03:46:17.102Z,11.80
2019-06-07T03:48:47.231Z,11.70
2019-06-07T03:51:24.544Z,11.70
2019-06-07T03:53:45.296Z,11.70
2019-06-07T03:56:13.933Z,11.60
2019-06-07T03:58:49.531Z,11.70
2019-06-07T04:01:18.137Z,11.70
2019-06-07T04:03:51.732Z,11.70
2019-06-07T04:06:24.730Z,11.70
2019-06-07T04:08:59.272Z,11.70
2019-06-07T04:11:27.800Z,11.70
2019-06-07T04:13:56.279Z,11.60
2019-06-07T04:16:24.352Z,11.60
2019-06-07T04:18:52.379Z,11.70
2019-06-07T04:21:23.116Z,11.70
2019-06-07T04:23:51.072Z,11.70
2019-06-07T04:26:19.254Z,11.70
2019-06-07T04:29:31.448Z,11.70
2019-06-07T04:31:17.431Z,11.80
2019-06-07T04:33:45.700Z,11.90
2019-06-07T04:36:14.816Z,11.80
2019-06-07T04:38:44.912Z,11.90
2019-06-07T04:41:13.976Z,11.80
2019-06-07T04:43:43.014Z,11.80
2019-06-07T04:46:12.202Z,11.80
2019-06-07T04:48:43.721Z,11.90
2019-06-07T04:51:16.117Z,11.90
2019-06-07T04:53:49.058Z,12.00
2019-06-07T04:56:17.197Z,12.10
2019-06-07T04:58:48.237Z,12.20
2019-06-07T05:01:27.498Z,12.20
2019-06-07T05:03:46.199Z,12.20
2019-06-07T05:06:14.411Z,12.20
2019-06-07T05:08:44.985Z,12.30
2019-06-07T05:11:17.472Z,12.40
2019-06-07T05:13:45.584Z,12.40
2019-06-07T05:16:13.676Z,12.40
2019-06-07T05:18:43.307Z,12.40
2019-06-07T05:21:11.587Z,12.40
2019-06-07T05:24:05.374Z,12.50
2019-06-07T05:26:13.442Z,12.50
2019-06-07T05:28:43.044Z,12.60
2019-06-07T05:31:12.015Z,12.60
2019-06-07T05:33:41.260Z,12.60
2019-06-07T05:36:09.949Z,12.60
2019-06-07T05:38:44.576Z,12.60
2019-06-07T05:41:11.599Z,12.70
2019-06-07T05:43:45.518Z,12.70
2019-06-07T05:46:09.649Z,12.70
2019-06-07T05:48:42.103Z,12.70
2019-06-07T05:51:10.726Z,12.70
2019-06-07T05:53:40.874Z,12.80
2019-06-07T05:56:14.161Z,12.80
2019-06-07T05:58:44.615Z,12.80
2019-06-07T06:01:44.981Z,12.90
2019-06-07T06:03:54.905Z,12.90
2019-06-07T06:06:24.914Z,12.80
2019-06-07T06:09:11.639Z,12.80
2019-06-07T06:11:41.045Z,12.80
2019-06-07T06:14:06.599Z,12.70
2019-06-07T06:16:22.796Z,12.60
2019-06-07T06:18:53.535Z,12.50
2019-06-07T06:21:21.681Z,12.40
2019-06-07T06:23:51.915Z,12.40
2019-06-07T06:26:19.494Z,12.40
2019-06-07T06:28:49.760Z,12.30
2019-06-07T06:31:19.573Z,12.30
2019-06-07T06:33:49.840Z,12.30
2019-06-07T06:36:18.072Z,12.20
2019-06-07T06:38:47.220Z,12.20
2019-06-07T06:41:16.834Z,12.20
2019-06-07T06:43:49.437Z,12.10
2019-06-07T06:46:31.815Z,12.10
2019-06-07T06:48:49.436Z,12.10
2019-06-07T06:51:15.276Z,12.10
2019-06-07T06:53:43.882Z,12.00
2019-06-07T06:56:13.389Z,12.00
2019-06-07T06:59:21.747Z,12.00
2019-06-07T07:01:15.786Z,12.00
2019-06-07T07:04:01.246Z,12.00
2019-06-07T07:06:26.490Z,12.00
2019-06-07T07:08:53.288Z,12.10
2019-06-07T07:11:23.184Z,12.10
2019-06-07T07:13:56.278Z,12.10
2019-06-07T07:16:21.024Z,12.10
2019-06-07T07:18:52.869Z,12.10
2019-06-07T07:21:25.752Z,12.10
2019-06-07T07:24:14.727Z,12.10
2019-06-07T07:26:21.607Z,12.10
2019-06-07T07:28:54.592Z,12.10
2019-06-07T07:31:20.901Z,12.10
2019-06-07T07:36:38.737Z,12.20
2019-06-07T07:39:05.295Z,12.10
2019-06-07T07:41:31.377Z,12.20
2019-06-07T07:44:06.032Z,12.20
2019-06-07T07:46:30.237Z,12.30
2019-06-07T07:48:58.610Z,12.20
2019-06-07T07:51:26.742Z,12.20
2019-06-07T07:54:10.239Z,12.20
2019-06-07T07:56:28.365Z,12.30
2019-06-07T07:59:01.653Z,12.20
2019-06-07T08:01:56.079Z,12.20
2019-06-07T08:05:28.796Z,12.20
2019-06-07T08:07:34.489Z,12.20
2019-06-07T08:10:04.233Z,12.20
2019-06-07T08:12:55.905Z,12.20
2019-06-07T08:15:04.933Z,12.20
2019-06-07T08:17:33.274Z,12.20
2019-06-07T08:20:02.998Z,12.10
2019-06-07T08:22:31.394Z,12.10
2019-06-07T08:25:03.992Z,12.20
2019-06-07T08:27:32.074Z,12.20
2019-06-07T08:30:35.500Z,12.20
2019-06-07T08:32:41.410Z,12.20
2019-06-07T08:36:01.030Z,12.20
2019-06-07T08:40:17.156Z,12.30
2019-06-07T08:43:03.242Z,12.30
2019-06-07T08:45:15.736Z,12.30
2019-06-07T08:47:43.979Z,12.30
2019-06-07T08:50:13.239Z,12.40
2019-06-07T08:52:44.981Z,12.50
2019-06-07T08:55:13.553Z,12.60
2019-06-07T08:57:42.007Z,12.50
2019-06-07T09:00:42.466Z,12.50
2019-06-07T09:02:44.764Z,12.50
2019-06-07T09:05:30.791Z,12.50
2019-06-07T09:08:21.751Z,12.50
2019-06-07T09:10:29.232Z,12.50
2019-06-07T09:13:00.335Z,12.60
2019-06-07T09:15:30.049Z,12.50
2019-06-07T09:20:48.326Z,12.50
2019-06-07T09:23:18.134Z,12.50
2019-06-07T09:26:00.908Z,12.60
2019-06-07T09:28:24.413Z,12.60
2019-06-07T09:30:52.716Z,12.60
2019-06-07T09:33:20.858Z,12.70
2019-06-07T09:35:48.940Z,12.70
2019-06-07T09:38:25.710Z,12.80
2019-06-07T09:40:50.992Z,12.80
2019-06-07T09:44:00.921Z,12.80
2019-06-07T09:45:56.667Z,12.80
2019-06-07T09:49:09.298Z,12.80
2019-06-07T09:50:55.289Z,12.90
2019-06-07T09:53:25.187Z,12.90
2019-06-07T09:55:56.826Z,12.80
2019-06-07T10:00:59.269Z,12.70
2019-06-07T10:03:32.017Z,12.70
2019-06-07T10:06:13.219Z,12.70
2019-06-07T10:10:02.636Z,12.60
2019-06-07T10:11:15.018Z,12.70
2019-06-07T10:13:43.161Z,12.60
2019-06-07T10:16:11.126Z,12.60
2019-06-07T10:18:40.687Z,12.50
2019-06-07T10:21:14.496Z,12.40
2019-06-07T10:23:39.139Z,12.40
2019-06-07T10:26:10.106Z,12.40
2019-06-07T10:28:43.244Z,12.40
2019-06-07T10:31:13.808Z,12.30
2019-06-07T10:33:45.855Z,12.30
2019-06-07T10:36:14.170Z,12.20
2019-06-07T10:38:56.866Z,12.20
2019-06-07T10:41:24.981Z,12.20
2019-06-07T10:43:58.206Z,12.20
2019-06-07T10:46:27.653Z,12.20
2019-06-07T10:48:58.813Z,12.20
2019-06-07T10:51:26.972Z,12.20
2019-06-07T10:53:55.165Z,12.20
2019-06-07T10:56:23.364Z,12.30
2019-06-07T10:58:55.650Z,12.20
2019-06-07T11:01:23.758Z,12.20
2019-06-07T11:03:58.480Z,12.20
2019-06-07T11:06:27.967Z,12.30
2019-06-07T11:09:00.183Z,12.30
2019-06-07T11:11:27.997Z,12.30
2019-06-07T11:13:57.527Z,12.30
2019-06-07T11:16:25.677Z,12.40
2019-06-07T11:18:53.753Z,12.40
2019-06-07T11:21:25.691Z,12.40
2019-06-07T11:23:53.842Z,12.40
2019-06-07T11:26:21.908Z,12.60
2019-06-07T11:28:50.190Z,12.70
2019-06-07T11:31:35.131Z,12.80
2019-06-07T11:34:03.389Z,12.70
2019-06-07T11:36:31.509Z,12.80
2019-06-07T11:39:01.355Z,12.80
2019-06-07T11:41:29.385Z,12.90
2019-06-07T11:43:57.560Z,12.90
2019-06-07T11:46:25.599Z,12.90
2019-06-07T11:48:53.700Z,12.90
2019-06-07T11:51:23.860Z,12.90
2019-06-07T11:53:53.681Z,13.00
2019-06-07T11:56:21.750Z,13.10
2019-06-07T11:58:50.089Z,13.30
2019-06-07T12:01:20.156Z,13.30
2019-06-07T12:03:48.425Z,13.40
2019-06-07T12:06:27.292Z,13.60
2019-06-07T12:08:57.684Z,13.80
2019-06-07T12:11:25.948Z,13.90
2019-06-07T12:13:53.929Z,14.20
2019-06-07T12:16:22.006Z,14.20
2019-06-07T12:18:50.369Z,14.10
2019-06-07T12:21:23.114Z,14.10
2019-06-07T12:23:55.663Z,14.00
2019-06-07T12:26:31.609Z,14.00
2019-06-07T12:29:07.359Z,14.10
2019-06-07T12:31:40.950Z,14.00
2019-06-07T12:34:17.621Z,14.00
2019-06-07T12:36:50.430Z,13.90
2019-06-07T12:39:20.412Z,13.80
2019-06-07T12:41:49.852Z,13.80
2019-06-07T12:44:18.596Z,13.80
2019-06-07T12:46:46.691Z,13.80
2019-06-07T12:49:17.129Z,13.90
2019-06-07T12:51:50.787Z,13.90
2019-06-07T12:54:19.864Z,14.00
2019-06-07T12:56:52.315Z,13.90
2019-06-07T12:59:20.075Z,14.00
2019-06-07T13:01:48.183Z,13.90
2019-06-07T13:04:16.397Z,13.90
2019-06-07T13:06:46.001Z,13.80
2019-06-07T13:09:19.944Z,13.70
2019-06-07T13:11:48.607Z,13.50
2019-06-07T13:14:17.762Z,13.60
2019-06-07T13:16:46.277Z,13.70
2019-06-07T13:19:18.052Z,13.80
2019-06-07T13:21:48.691Z,14.20
2019-06-07T13:24:22.816Z,14.50
2019-06-07T13:26:53.620Z,14.80
2019-06-07T13:29:25.122Z,14.90
2019-06-07T13:31:55.909Z,14.80
2019-06-07T13:34:24.358Z,14.90
2019-06-07T13:36:52.585Z,15.20
2019-06-07T13:39:23.353Z,15.50
2019-06-07T13:41:52.304Z,15.40
2019-06-07T13:44:22.896Z,15.30
2019-06-07T13:46:51.246Z,15.30
2019-06-07T13:49:19.519Z,15.30
2019-06-07T13:51:47.674Z,15.40
2019-06-07T13:54:18.655Z,15.40
2019-06-07T13:57:01.966Z,15.60
2019-06-07T13:59:24.556Z,15.60
2019-06-07T14:01:52.750Z,15.60
2019-06-07T14:04:20.966Z,15.50
2019-06-07T14:06:48.991Z,15.40
2019-06-07T14:09:17.071Z,15.30
2019-06-07T14:11:51.029Z,15.60
2019-06-07T14:14:24.983Z,15.70
2019-06-07T14:16:57.586Z,15.50
2019-06-07T14:19:26.550Z,15.40
2019-06-07T14:21:54.731Z,15.40
2019-06-07T14:24:23.006Z,15.40
2019-06-07T14:27:06.214Z,15.50
2019-06-07T14:29:35.451Z,15.40
2019-06-07T14:32:05.457Z,15.40
2019-06-07T14:34:33.409Z,15.40
2019-06-07T14:37:01.629Z,15.70
2019-06-07T14:39:31.293Z,15.80
2019-06-07T14:42:09.005Z,16.00
2019-06-07T14:44:29.850Z,16.00
2019-06-07T14:46:58.154Z,15.90
2019-06-07T14:49:32.707Z,15.80
2019-06-07T14:52:05.880Z,16.00
2019-06-07T14:54:37.013Z,16.20
2019-06-07T14:57:04.247Z,16.40
2019-06-07T14:59:32.903Z,16.50
2019-06-07T15:02:01.140Z,16.30
2019-06-07T15:04:32.909Z,16.10
2019-06-07T15:07:03.120Z,16.10
2019-06-07T15:09:35.296Z,16.00
2019-06-07T15:12:03.727Z,16.00
2019-06-07T15:14:31.715Z,16.00
2019-06-07T15:16:59.819Z,16.10
2019-06-07T15:19:28.853Z,16.20
2019-06-07T15:21:59.783Z,16.30
2019-06-07T15:24:28.279Z,16.40
2019-06-07T15:26:56.361Z,16.60
2019-06-07T15:29:24.371Z,16.50
2019-06-07T15:31:54.034Z,16.20
2019-06-07T15:34:23.370Z,16.00
2019-06-07T15:36:51.448Z,16.10
2019-06-07T15:39:20.745Z,16.30
2019-06-07T15:41:48.794Z,16.60
2019-06-07T15:44:16.730Z,16.50
2019-06-07T15:46:49.580Z,16.30
2019-06-07T15:49:18.121Z,16.10
2019-06-07T15:51:46.134Z,16.00
2019-06-07T15:54:14.199Z,15.80
2019-06-07T15:56:42.282Z,15.80
2019-06-07T15:59:17.892Z,15.70
2019-06-07T16:01:49.132Z,15.60
2019-06-07T16:04:24.554Z,15.70
2019-06-07T16:06:55.118Z,15.80
2019-06-07T16:09:28.621Z,15.80
2019-06-07T16:11:56.733Z,16.00
2019-06-07T16:14:24.926Z,16.00
2019-06-07T16:16:52.951Z,15.90
2019-06-07T16:19:23.796Z,15.80
2019-06-07T16:21:54.486Z,15.70
2019-06-07T16:24:22.479Z,15.60
2019-06-07T16:26:50.379Z,15.40
2019-06-07T16:29:18.421Z,15.30
2019-06-07T16:31:46.472Z,15.30
2019-06-07T16:34:14.622Z,15.20
2019-06-07T16:36:42.714Z,15.00
2019-06-07T16:39:12.632Z,14.80
2019-06-07T16:41:40.904Z,14.60
2019-06-07T16:44:10.306Z,14.60
2019-06-07T16:46:42.950Z,14.60
2019-06-07T16:49:12.586Z,14.60
2019-06-07T16:51:41.264Z,14.60
2019-06-07T16:54:11.213Z,14.70
2019-06-07T16:56:45.326Z,14.70
2019-06-07T16:59:11.752Z,14.60
2019-06-07T17:01:40.998Z,14.60
2019-06-07T17:04:14.637Z,14.50
2019-06-07T17:06:43.736Z,14.40
2019-06-07T17:09:11.868Z,14.30
2019-06-07T17:11:40.389Z,14.20
2019-06-07T17:14:08.667Z,14.00
2019-06-07T17:16:36.764Z,13.70
2019-06-07T17:19:07.650Z,13.50
2019-06-07T17:21:34.894Z,13.40
2019-06-07T17:24:03.039Z,13.30
2019-06-07T17:26:31.091Z,13.30
2019-06-07T17:28:59.249Z,13.30
2019-06-07T17:31:27.342Z,13.30
2019-06-07T17:33:55.511Z,13.30
2019-06-07T17:36:23.740Z,13.40
2019-06-07T17:38:51.859Z,13.50
2019-06-07T17:41:21.631Z,13.50
2019-06-07T17:43:58.493Z,13.60
2019-06-07T17:46:21.746Z,13.60
2019-06-07T17:48:51.714Z,13.70
2019-06-07T17:51:20.305Z,13.70
2019-06-07T17:53:49.852Z,13.70
2019-06-07T17:56:21.052Z,13.80
2019-06-07T17:58:50.496Z,13.80
2019-06-07T18:01:19.019Z,13.80
2019-06-07T18:03:47.233Z,13.70
2019-06-07T18:06:16.284Z,13.70
2019-06-07T18:08:47.646Z,13.70
2019-06-07T18:11:15.907Z,13.60
2019-06-07T18:13:44.180Z,13.50
2019-06-07T18:16:12.264Z,13.40
2019-06-07T18:18:40.432Z,13.40
2019-06-07T18:21:14.739Z,13.40
2019-06-07T18:23:46.219Z,13.40
2019-06-07T18:26:22.881Z,13.40
2019-06-07T18:28:51.033Z,13.40
2019-06-07T18:31:19.292Z,13.40
2019-06-07T18:33:48.694Z,13.30
2019-06-07T18:36:18.983Z,13.30
2019-06-07T18:38:48.975Z,13.30
2019-06-07T18:41:17.900Z,13.30
2019-06-07T18:43:51.238Z,13.40
2019-06-07T18:46:19.165Z,13.30
2019-06-07T18:48:48.297Z,13.30
2019-06-07T18:51:16.488Z,13.30
2019-06-07T18:53:47.750Z,13.40
2019-06-07T18:56:16.119Z,13.30
2019-06-07T18:58:44.209Z,13.40
2019-06-07T19:01:14.489Z,13.40
2019-06-07T19:03:42.659Z,13.40
2019-06-07T19:06:13.290Z,13.40
2019-06-07T19:08:41.952Z,13.50
2019-06-07T19:11:13.279Z,13.50
2019-06-07T19:13:41.544Z,13.40
2019-06-07T19:16:09.684Z,13.50
2019-06-07T19:18:38.133Z,13.50
2019-06-07T19:21:07.659Z,13.50
2019-06-07T19:23:35.943Z,13.50
2019-06-07T19:26:06.588Z,13.50
2019-06-07T19:28:34.576Z,13.40
2019-06-07T19:31:02.873Z,13.40
2019-06-07T19:33:46.242Z,13.40
2019-06-07T19:36:03.898Z,13.40
2019-06-07T19:38:38.091Z,13.30
2019-06-07T19:41:19.684Z,13.30
2019-06-07T19:43:46.554Z,13.30
2019-06-07T19:46:14.712Z,13.30
2019-06-07T19:48:43.003Z,13.20
2019-06-07T19:51:11.166Z,13.30
2019-06-07T19:53:42.018Z,13.20
2019-06-07T19:56:10.594Z,13.20
2019-06-07T19:58:45.711Z,13.20
2019-06-07T20:01:11.753Z,13.20
2019-06-07T20:03:42.986Z,13.20
2019-06-07T20:06:13.926Z,13.20
2019-06-07T20:08:41.993Z,13.10
2019-06-07T20:11:10.406Z,13.10
2019-06-07T20:13:39.288Z,13.10
2019-06-07T20:16:09.505Z,13.10
2019-06-07T20:18:37.453Z,13.00
2019-06-07T20:21:05.623Z,13.00
2019-06-07T20:23:33.919Z,12.90
2019-06-07T20:26:02.619Z,12.90
2019-06-07T20:28:30.739Z,13.00
2019-06-07T20:30:59.686Z,13.00
2019-06-07T20:33:29.486Z,12.90
2019-06-07T20:35:58.624Z,12.80
2019-06-07T20:38:30.060Z,12.70
2019-06-07T20:40:59.432Z,12.70
2019-06-07T20:43:29.977Z,12.70
2019-06-07T20:46:00.667Z,12.80
2019-06-07T20:48:27.979Z,12.80
2019-06-07T20:50:56.139Z,12.90
2019-06-07T20:53:26.649Z,12.90
2019-06-07T20:55:56.187Z,12.80
2019-06-07T20:58:27.602Z,12.80
2019-06-07T21:00:58.523Z,12.70
2019-06-07T21:03:26.717Z,12.80
2019-06-07T21:05:54.833Z,12.70
2019-06-07T21:08:26.038Z,12.70
2019-06-07T21:10:55.801Z,12.80
2019-06-07T21:13:24.128Z,12.80
2019-06-07T21:15:52.204Z,12.70
2019-06-07T21:18:20.493Z,12.70
2019-06-07T21:20:48.657Z,12.60
2019-06-07T21:23:19.629Z,12.60
2019-06-07T21:25:49.931Z,12.60
2019-06-07T21:28:18.099Z,12.50
2019-06-07T21:30:48.020Z,12.50
2019-06-07T21:33:16.288Z,12.60
2019-06-07T21:35:44.368Z,12.60
2019-06-07T21:38:15.306Z,12.60
2019-06-07T21:40:43.570Z,12.60
2019-06-07T21:43:12.769Z,12.60
2019-06-07T21:45:41.277Z,12.70
2019-06-07T21:48:11.633Z,12.60
2019-06-07T21:50:40.274Z,12.50
2019-06-07T21:53:10.725Z,12.60
2019-06-07T21:55:39.082Z,12.70
2019-06-07T21:58:07.171Z,12.70
2019-06-07T22:01:28.778Z,12.70
2019-06-07T22:03:56.829Z,12.70
2019-06-07T22:06:24.817Z,12.70
2019-06-07T22:08:54.330Z,12.70
2019-06-07T22:11:24.763Z,12.70
2019-06-07T22:13:53.116Z,12.70
2019-06-07T22:16:28.510Z,12.70
2019-06-07T22:18:51.316Z,12.70
2019-06-07T22:21:19.484Z,12.60
2019-06-07T22:23:51.805Z,12.50
2019-06-07T22:26:24.859Z,12.50
2019-06-07T22:29:02.079Z,12.50
2019-06-07T22:31:39.343Z,12.60
2019-06-07T22:34:15.206Z,12.60
2019-06-07T22:36:52.791Z,12.60
2019-06-07T22:39:20.963Z,12.60
2019-06-07T22:41:56.396Z,12.60
2019-06-07T22:44:28.970Z,12.60
2019-06-07T22:47:04.201Z,12.70
2019-06-07T22:49:35.209Z,12.70
2019-06-07T22:52:08.825Z,12.70
2019-06-07T22:54:33.530Z,12.60
2019-06-07T22:57:07.892Z,12.60
2019-06-07T22:59:36.280Z,12.60
2019-06-07T23:02:04.548Z,12.60
2019-06-07T23:04:32.961Z,12.60
2019-06-07T23:07:01.013Z,12.60
2019-06-07T23:09:29.045Z,12.60
2019-06-07T23:11:57.052Z,12.50
2019-06-07T23:14:28.882Z,12.50
2019-06-07T23:17:02.018Z,12.50
2019-06-07T23:19:38.328Z,12.50
2019-06-07T23:22:09.907Z,12.40
2019-06-07T23:24:50.369Z,12.40
2019-06-07T23:27:23.027Z,12.40
2019-06-07T23:29:57.364Z,12.40
2019-06-07T23:32:31.711Z,12.30
2019-06-07T23:35:01.601Z,12.20
2019-06-07T23:37:31.603Z,12.20
2019-06-07T23:39:59.671Z,12.10
2019-06-07T23:42:27.766Z,12.10
2019-06-07T23:44:55.966Z,12.10
2019-06-07T23:47:27.166Z,12.00
2019-06-07T23:49:55.356Z,12.00
2019-06-07T23:52:23.527Z,12.00
2019-06-07T23:54:51.502Z,12.00
2019-06-07T23:57:20.930Z,12.00
2019-06-07T23:59:50.597Z,11.90
